KAPN/APN METAR and TAF weather

Enter ICAO airport designator
Station Type Date Time Source
KAPN METAR 2020/03/31 22:54 UTC NOAA

KAPN 312254Z AUTO 01007KT 10SM OVC017 04/03 A3005 RMK AO2 RAB05E20 SLP185 P0000 T00440033


Station Type Date Time Source
KAPN Decoded METAR 2020/03/31 22:54 UTC NOAA

ALPENA COUNTY REGIONAL AIRPORT, MI, United States (KAPN) 45-05N 083-34W 210M
Mar 31, 2020 - 06:54 PM EDT / 2020.03.31 2254 UTC
Wind: from the N (010 degrees) at 8 MPH (7 KT):0
Visibility: 10 mile(s):0
Sky conditions: overcast
Precipitation last hour: A trace
Temperature: 39.9 F (4.4 C)
Dew Point: 37.9 F (3.3 C)
Relative Humidity: 92%
Pressure (altimeter): 30.05 in. Hg (1017 hPa)
ob: KAPN 312254Z AUTO 01007KT 10SM OVC017 04/03 A3005 RMK AO2 RAB05E20 SLP185 P0000 T00440033
cycle: 23

Station Type Date Time Source
KAPN TAF 2020/03/31 18:36 UTC NOAA

TAF KAPN 311733Z 3118/0118 04007KT P6SM OVC011
FM010000 03005KT P6SM OVC015
FM010200 04005KT P6SM OVC007
FM011200 04004KT P6SM OVC011
FM011500 VRB03KT P6SM BKN020

Example: see airport list